Time;durP1;ratioP1;P1;durP2;ratioP2;P2;SDS_P1;SDS_P2;PMS_P1;PMS_P2;Temp;Humidity;BMP_temperature;BMP_pressure;BME280_temperature;BME280_humidity;BME280_pressure;Samples;Min_cycle;Max_cycle;Signal;HPM_P1;HPM_P2
2022/07/07 00:01:13;;;;;;;1.45;0.50;;;23.00;99.90;;;;;;12983193;22;20840;-83
2022/07/07 00:06:16;;;;;;;1.42;0.57;;;23.10;99.90;;;;;;12998692;22;20235;-83
2022/07/07 00:11:19;;;;;;;0.40;0.40;;;23.10;99.90;;;;;;12983074;22;20189;-83
2022/07/07 00:16:22;;;;;;;1.50;0.47;;;23.10;99.90;;;;;;12954433;22;20295;-83
2022/07/07 00:21:25;;;;;;;1.85;0.60;;;23.10;99.90;;;;;;12981883;22;20547;-83
2022/07/07 00:26:30;;;;;;;0.55;0.40;;;23.10;99.90;;;;;;12982167;22;20497;-83
2022/07/07 00:31:33;;;;;;;0.52;0.40;;;23.10;99.90;;;;;;12953996;22;20194;-83
2022/07/07 00:36:39;;;;;;;0.40;0.40;;;23.10;99.90;;;;;;12995469;22;20169;-83
2022/07/07 00:41:41;;;;;;;0.40;0.40;;;23.10;99.90;;;;;;12981163;22;20559;-83
2022/07/07 00:47:01;;;;;;;0.50;0.50;;;23.00;99.90;;;;;;12975871;22;20211;-83
2022/07/07 00:52:05;;;;;;;0.40;0.35;;;23.00;99.90;;;;;;12953917;22;20509;-83
2022/07/07 00:57:08;;;;;;;0.68;0.50;;;23.10;99.90;;;;;;12972021;22;20190;-83
2022/07/07 01:02:30;;;;;;;0.82;0.43;;;23.10;99.90;;;;;;12953074;22;20174;-83
2022/07/07 01:07:33;;;;;;;0.75;0.70;;;23.10;99.90;;;;;;12980929;22;20224;-83
2022/07/07 01:12:38;;;;;;;2.72;0.30;;;23.00;99.90;;;;;;12953322;22;20215;-83
2022/07/07 01:17:41;;;;;;;1.02;0.57;;;23.10;99.90;;;;;;12981187;22;20500;-83
2022/07/07 01:22:49;;;;;;;0.43;0.32;;;23.00;99.90;;;;;;12954179;22;20173;-83
2022/07/07 01:27:52;;;;;;;2.13;0.95;;;23.00;99.90;;;;;;12971717;22;20200;-83
2022/07/07 01:32:54;;;;;;;0.70;0.50;;;23.00;99.90;;;;;;12981084;22;20161;-83
2022/07/07 01:37:57;;;;;;;0.82;0.52;;;23.00;99.90;;;;;;12990325;22;20170;-83
2022/07/07 01:42:59;;;;;;;0.60;0.30;;;23.00;99.90;;;;;;12953001;22;20178;-83
2022/07/07 01:48:02;;;;;;;1.58;0.50;;;23.00;99.90;;;;;;12981600;22;20181;-83
2022/07/07 01:53:05;;;;;;;0.80;0.52;;;23.00;99.90;;;;;;12980793;22;20195;-83
2022/07/07 01:58:07;;;;;;;0.75;0.50;;;23.00;99.90;;;;;;12953112;22;20244;-83
2022/07/07 02:03:09;;;;;;;1.80;0.40;;;23.00;99.90;;;;;;12980764;22;20224;-83
2022/07/07 02:08:12;;;;;;;1.10;0.52;;;22.90;99.90;;;;;;12980277;22;20527;-83
2022/07/07 02:13:15;;;;;;;0.50;0.40;;;22.90;99.90;;;;;;12980497;22;20166;-83
2022/07/07 02:18:17;;;;;;;0.70;0.43;;;22.90;99.90;;;;;;12954513;22;20170;-83
2022/07/07 02:23:20;;;;;;;0.70;0.60;;;22.90;99.90;;;;;;12982682;22;20169;-83
2022/07/07 02:28:26;;;;;;;0.70;0.47;;;22.90;99.90;;;;;;12956888;22;20189;-83
2022/07/07 02:33:29;;;;;;;0.57;0.40;;;22.90;99.90;;;;;;13002357;22;20192;-83
2022/07/07 02:38:33;;;;;;;1.05;0.77;;;22.90;99.90;;;;;;12984340;22;20173;-83
2022/07/07 02:43:36;;;;;;;0.70;0.50;;;22.90;99.90;;;;;;12984381;22;20165;-83
2022/07/07 02:48:38;;;;;;;2.92;0.60;;;22.90;99.90;;;;;;12983965;22;20190;-83
2022/07/07 02:53:41;;;;;;;1.00;0.55;;;22.90;99.90;;;;;;12983639;22;20646;-83
2022/07/07 02:58:43;;;;;;;1.20;0.30;;;22.80;99.90;;;;;;12984131;22;20611;-83
2022/07/07 03:03:45;;;;;;;0.40;0.30;;;22.80;99.90;;;;;;12984406;22;20166;-83
2022/07/07 03:08:48;;;;;;;0.50;0.30;;;22.90;99.90;;;;;;12956123;22;20569;-83
2022/07/07 03:13:50;;;;;;;1.25;0.73;;;22.80;99.90;;;;;;12956630;22;20223;-83
2022/07/07 03:18:53;;;;;;;1.00;0.50;;;22.80;99.90;;;;;;12956766;22;20524;-83
2022/07/07 03:23:55;;;;;;;0.50;0.50;;;22.80;99.90;;;;;;12957143;22;20174;-83
2022/07/07 03:28:58;;;;;;;0.68;0.45;;;22.90;99.90;;;;;;12956587;22;20239;-84
2022/07/07 03:34:00;;;;;;;2.05;0.50;;;22.90;99.90;;;;;;13002534;22;20162;-84
2022/07/07 03:39:03;;;;;;;1.95;0.57;;;22.90;99.90;;;;;;12982378;22;20572;-84
2022/07/07 03:44:06;;;;;;;1.13;0.52;;;22.90;99.90;;;;;;12972460;22;20170;-84
2022/07/07 03:49:09;;;;;;;0.90;0.50;;;22.90;99.90;;;;;;12953306;22;20224;-84
2022/07/07 03:54:12;;;;;;;3.17;0.40;;;22.80;99.90;;;;;;12960204;22;20552;-84
2022/07/07 03:59:15;;;;;;;1.08;0.65;;;22.80;99.90;;;;;;12981693;22;20252;-82
2022/07/07 04:04:17;;;;;;;0.85;0.60;;;22.90;99.90;;;;;;12981354;22;20212;-82
2022/07/07 04:09:20;;;;;;;0.98;0.50;;;22.90;99.90;;;;;;12986078;22;20208;-82
2022/07/07 04:14:22;;;;;;;0.60;0.50;;;22.90;99.90;;;;;;12981693;22;20551;-82
2022/07/07 04:19:25;;;;;;;0.77;0.57;;;22.90;99.90;;;;;;12981786;22;20169;-83
2022/07/07 04:24:27;;;;;;;0.68;0.50;;;23.00;99.90;;;;;;12958835;22;20243;-83
2022/07/07 04:29:30;;;;;;;0.60;0.47;;;23.00;99.90;;;;;;12982040;22;20575;-83
2022/07/07 04:34:33;;;;;;;0.93;0.70;;;23.00;99.90;;;;;;12954170;22;20173;-83
2022/07/07 04:39:35;;;;;;;0.85;0.60;;;23.00;99.90;;;;;;12984343;22;20174;-83
2022/07/07 04:44:38;;;;;;;1.00;0.50;;;23.20;99.90;;;;;;12981553;22;20677;-83
2022/07/07 04:49:40;;;;;;;0.88;0.60;;;23.20;99.90;;;;;;13000000;22;20190;-82
2022/07/07 04:54:43;;;;;;;0.80;0.57;;;23.20;99.90;;;;;;12953077;22;20178;-83
2022/07/07 04:59:46;;;;;;;3.70;1.15;;;23.20;99.90;;;;;;12953261;22;20571;-83
2022/07/07 05:04:49;;;;;;;0.50;0.50;;;23.30;99.90;;;;;;12980870;22;20170;-85
2022/07/07 05:09:51;;;;;;;0.60;0.50;;;23.30;99.90;;;;;;12952425;22;20232;-84
2022/07/07 05:14:54;;;;;;;0.80;0.50;;;23.40;99.90;;;;;;12927025;22;20640;-84
2022/07/07 05:19:56;;;;;;;0.80;0.80;;;23.30;99.90;;;;;;12980187;22;20174;-84
2022/07/07 05:24:59;;;;;;;1.13;0.68;;;23.20;99.90;;;;;;12927625;22;20181;-84
2022/07/07 05:30:02;;;;;;;1.02;0.60;;;22.90;97.50;;;;;;12972401;22;20524;-84
2022/07/07 05:35:05;;;;;;;2.70;1.13;;;22.80;99.30;;;;;;12980387;22;20166;-84
2022/07/07 05:40:09;;;;;;;2.50;1.10;;;22.80;99.60;;;;;;12954043;22;20508;-83
2022/07/07 05:45:11;;;;;;;0.90;0.70;;;22.90;97.10;;;;;;12980784;22;20169;-83
2022/07/07 05:50:14;;;;;;;3.00;0.73;;;22.90;98.70;;;;;;12971201;22;20189;-84
2022/07/07 05:55:16;;;;;;;3.55;0.93;;;22.90;99.00;;;;;;12953629;22;20173;-84
2022/07/07 06:00:19;;;;;;;1.05;0.80;;;22.80;96.80;;;;;;12992014;22;20520;-84
2022/07/07 06:05:22;;;;;;;1.95;0.77;;;22.70;99.70;;;;;;12984222;22;20223;-83
2022/07/07 06:10:25;;;;;;;1.42;0.80;;;22.80;99.90;;;;;;12983360;22;20235;-84
2022/07/07 06:15:27;;;;;;;3.03;1.20;;;23.00;99.90;;;;;;12930396;22;20564;-84
2022/07/07 06:20:31;;;;;;;1.02;0.60;;;22.90;98.60;;;;;;12929887;22;20710;-84
2022/07/07 06:25:34;;;;;;;3.65;0.82;;;23.20;99.90;;;;;;12956141;22;20177;-84
2022/07/07 06:30:37;;;;;;;4.22;0.90;;;22.80;97.90;;;;;;12983062;22;20190;-85
2022/07/07 06:35:39;;;;;;;1.95;0.82;;;22.80;98.50;;;;;;12929896;22;20491;-85
2022/07/07 06:40:42;;;;;;;4.15;0.88;;;22.80;96.50;;;;;;12955700;22;20208;-84
2022/07/07 06:45:51;;;;;;;1.75;0.88;;;23.00;99.00;;;;;;13000401;22;20166;-84
2022/07/07 06:50:54;;;;;;;4.32;0.88;;;23.10;94.90;;;;;;12955481;22;20191;-84
2022/07/07 06:55:57;;;;;;;0.68;0.57;;;22.90;99.70;;;;;;13000186;22;20554;-84
2022/07/07 07:01:00;;;;;;;0.50;0.50;;;23.20;98.70;;;;;;12893191;23;20202;-84
2022/07/07 07:06:03;;;;;;;1.20;0.70;;;23.10;99.90;;;;;;12919834;23;20170;-84
2022/07/07 07:11:05;;;;;;;2.33;0.80;;;23.30;99.90;;;;;;12891066;23;20198;-84
2022/07/07 07:16:08;;;;;;;2.10;1.15;;;23.30;99.90;;;;;;12916264;23;20174;-84
2022/07/07 07:21:11;;;;;;;1.35;0.88;;;23.30;97.00;;;;;;12918942;23;20175;-84
2022/07/07 07:26:14;;;;;;;1.10;0.52;;;23.10;98.80;;;;;;12919658;23;20547;-84
2022/07/07 07:31:16;;;;;;;1.33;0.77;;;23.10;98.50;;;;;;12935124;23;20241;-84
2022/07/07 07:36:19;;;;;;;9.65;2.83;;;22.90;99.90;;;;;;12918632;23;20178;-84
2022/07/07 07:41:21;;;;;;;7.55;2.80;;;23.40;99.90;;;;;;12918751;23;20170;-84
2022/07/07 07:46:24;;;;;;;4.30;1.95;;;23.80;99.80;;;;;;12918762;23;20171;-84
2022/07/07 07:51:26;;;;;;;5.03;2.05;;;23.80;95.90;;;;;;12918079;23;20573;-84
2022/07/07 07:56:29;;;;;;;5.65;1.77;;;23.60;96.40;;;;;;12917712;23;20163;-84
2022/07/07 08:01:32;;;;;;;5.60;2.30;;;23.50;94.70;;;;;;12976490;22;20239;-84
2022/07/07 08:06:34;;;;;;;4.85;1.95;;;23.30;99.10;;;;;;12972223;22;20228;-84
2022/07/07 08:11:37;;;;;;;2.83;1.80;;;23.30;97.90;;;;;;12980162;22;20247;-83
2022/07/07 08:16:39;;;;;;;4.63;2.00;;;23.00;99.80;;;;;;12982614;22;20166;-84
2022/07/07 08:21:42;;;;;;;3.20;1.10;;;23.20;99.20;;;;;;12981168;22;20519;-84
2022/07/07 08:26:45;;;;;;;3.63;1.38;;;23.20;91.90;;;;;;12979750;22;20169;-84
2022/07/07 08:31:48;;;;;;;3.38;1.33;;;23.00;95.00;;;;;;12952637;22;20231;-84
2022/07/07 08:36:52;;;;;;;3.97;1.33;;;23.10;96.50;;;;;;12981007;22;20166;-84
2022/07/07 08:41:54;;;;;;;5.82;1.95;;;23.40;99.00;;;;;;12952665;22;20200;-84
2022/07/07 08:46:57;;;;;;;4.00;1.70;;;23.30;97.40;;;;;;12971896;22;20169;-84
2022/07/07 08:52:00;;;;;;;2.65;1.25;;;23.20;97.90;;;;;;12952059;22;20193;-84
2022/07/07 08:57:03;;;;;;;4.90;1.67;;;23.00;98.60;;;;;;12953732;22;20165;-84
2022/07/07 09:02:05;;;;;;;5.72;1.30;;;23.10;99.50;;;;;;12978989;22;20193;-84
2022/07/07 09:07:08;;;;;;;3.00;1.35;;;23.20;99.20;;;;;;12952560;22;20194;-84
2022/07/07 09:12:14;;;;;;;4.40;2.03;;;23.10;99.20;;;;;;12979053;22;20216;-84
2022/07/07 09:17:27;;;;;;;3.70;1.30;;;23.20;99.10;;;;;;12969807;22;20187;-84
2022/07/07 09:23:08;;;;;;;4.15;1.52;;;23.40;94.40;;;;;;12951740;22;20227;-84
2022/07/07 09:28:11;;;;;;;2.67;1.50;;;23.50;96.90;;;;;;12723714;23;20223;-84
2022/07/07 09:33:20;;;;;;;3.63;1.30;;;23.30;93.20;;;;;;12722750;23;20188;-84
2022/07/07 09:38:23;;;;;;;2.95;1.25;;;22.80;95.20;;;;;;12698631;23;20259;-84
2022/07/07 09:43:28;;;;;;;3.33;1.00;;;23.10;96.50;;;;;;12724342;23;20176;-84
2022/07/07 09:48:33;;;;;;;4.10;1.30;;;23.00;95.90;;;;;;12724226;23;20231;-84
2022/07/07 09:53:52;;;;;;;1.52;0.85;;;23.10;96.60;;;;;;12697117;23;20231;-83
2022/07/07 09:59:01;;;;;;;4.88;1.00;;;22.80;98.60;;;;;;12724099;23;20238;-83
2022/07/07 10:04:06;;;;;;;7.47;1.05;;;22.90;98.00;;;;;;12899230;22;20680;-91
2022/07/07 10:09:29;;;;;;;8.32;0.80;;;22.20;93.00;;;;;;12949267;22;20535;-91
2022/07/07 10:14:35;;;;;;;7.22;1.50;;;22.50;92.80;;;;;;12925892;22;20223;-91
2022/07/07 10:19:38;;;;;;;5.05;0.88;;;22.30;93.00;;;;;;12951693;22;20219;-92
2022/07/07 10:24:44;;;;;;;6.85;1.40;;;22.90;92.40;;;;;;12950094;22;20173;-91
2022/07/07 10:29:57;;;;;;;10.68;1.42;;;22.90;92.50;;;;;;12967709;22;20188;-90
2022/07/07 10:35:09;;;;;;;5.43;1.40;;;22.90;91.50;;;;;;12949816;22;20711;-91
2022/07/07 10:40:21;;;;;;;4.97;1.05;;;23.10;92.40;;;;;;12953669;22;20243;-91
2022/07/07 10:45:25;;;;;;;4.35;0.93;;;23.20;88.30;;;;;;12971368;22;20215;-92
2022/07/07 10:50:33;;;;;;;5.78;1.48;;;23.00;90.90;;;;;;12929173;22;20244;-92
2022/07/07 10:55:53;;;;;;;5.40;1.52;;;23.20;91.70;;;;;;12981721;22;20174;-90
2022/07/07 11:01:22;;;;;;;6.22;1.23;;;23.20;91.90;;;;;;12953699;22;20193;-92
2022/07/07 11:06:25;;;;;;;4.30;1.20;;;23.20;91.50;;;;;;12950256;22;20181;-92
2022/07/07 11:11:29;;;;;;;2.95;1.08;;;23.10;92.00;;;;;;12928743;22;20247;-91
2022/07/07 11:16:31;;;;;;;5.78;1.35;;;23.00;92.80;;;;;;12952035;22;20173;-91
2022/07/07 11:21:46;;;;;;;4.28;1.20;;;23.30;92.50;;;;;;12929632;22;20694;-91
2022/07/07 11:26:54;;;;;;;2.15;0.90;;;23.00;92.00;;;;;;12971277;22;20170;-92
2022/07/07 11:32:02;;;;;;;4.50;0.98;;;23.10;92.70;;;;;;12971931;22;20220;-91
2022/07/07 11:37:19;;;;;;;2.55;1.02;;;23.30;92.40;;;;;;12925529;22;20178;-91
2022/07/07 11:42:22;;;;;;;2.38;1.23;;;23.50;92.30;;;;;;12926886;22;20219;-91
2022/07/07 11:47:25;;;;;;;25.08;2.67;;;23.10;91.40;;;;;;12949302;22;20216;-82
2022/07/07 11:52:27;;;;;;;11.95;1.77;;;23.10;90.80;;;;;;12976999;22;20660;-82
2022/07/07 11:57:33;;;;;;;21.08;2.80;;;23.70;88.30;;;;;;12954699;22;20193;-82
2022/07/07 12:02:36;;;;;;;20.33;2.40;;;24.40;90.00;;;;;;12973198;22;20223;-82
2022/07/07 12:07:41;;;;;;;24.42;4.07;;;24.50;89.30;;;;;;12981739;22;20243;-82
2022/07/07 12:12:59;;;;;;;14.00;2.50;;;24.70;90.00;;;;;;12953772;22;20582;-81
2022/07/07 12:18:03;;;;;;;17.20;1.90;;;25.30;88.60;;;;;;12971605;22;20275;-82
2022/07/07 12:23:08;;;;;;;3.53;1.45;;;25.00;89.80;;;;;;12981199;22;20173;-81
2022/07/07 12:28:11;;;;;;;8.98;1.45;;;25.30;85.70;;;;;;12929109;22;20177;-81
2022/07/07 12:33:24;;;;;;;7.47;1.88;;;25.40;87.40;;;;;;12981574;22;20190;-81
2022/07/07 12:38:44;;;;;;;5.72;1.65;;;25.70;84.60;;;;;;12979376;22;20516;-81
2022/07/07 12:43:46;;;;;;;6.57;1.52;;;24.80;86.40;;;;;;12999551;22;20171;-81
2022/07/07 12:48:51;;;;;;;7.43;1.63;;;25.20;89.70;;;;;;12980758;22;20174;-81
2022/07/07 12:53:54;;;;;;;7.85;1.48;;;25.80;89.20;;;;;;12981161;22;20211;-81
2022/07/07 12:58:56;;;;;;;14.48;1.83;;;25.80;88.60;;;;;;12981401;22;20244;-81
2022/07/07 13:03:59;;;;;;;8.45;1.85;;;25.90;88.60;;;;;;12927334;22;20837;-82
2022/07/07 13:09:02;;;;;;;4.25;1.58;;;25.70;89.60;;;;;;12954431;22;20169;-81
2022/07/07 13:14:24;;;;;;;7.57;1.15;;;25.80;82.00;;;;;;12953965;22;20198;-81
2022/07/07 13:19:28;;;;;;;9.48;2.20;;;25.70;89.40;;;;;;12954953;22;20165;-82
2022/07/07 13:24:30;;;;;;;1.75;1.48;;;25.90;89.00;;;;;;12952776;22;20575;-81
2022/07/07 13:29:33;;;;;;;3.90;1.70;;;25.70;89.50;;;;;;12981536;22;20212;-82
2022/07/07 13:34:36;;;;;;;3.58;1.70;;;25.70;88.40;;;;;;12955489;22;20185;-82
2022/07/07 13:39:38;;;;;;;2.10;1.90;;;24.90;85.90;;;;;;12983684;22;20216;-82
2022/07/07 13:44:42;;;;;;;1.83;1.60;;;25.10;85.90;;;;;;12999868;22;20170;-82
2022/07/07 13:49:45;;;;;;;2.88;1.70;;;25.40;85.60;;;;;;12981694;22;20174;-83
2022/07/07 13:54:47;;;;;;;4.22;1.58;;;25.30;86.00;;;;;;12980764;22;20243;-83
2022/07/07 13:59:50;;;;;;;3.20;1.88;;;25.30;86.10;;;;;;12980086;22;20502;-83
2022/07/07 14:04:54;;;;;;;6.20;1.95;;;25.20;85.30;;;;;;12954398;22;20174;-82
2022/07/07 14:09:57;;;;;;;2.15;1.80;;;24.80;88.40;;;;;;12981333;22;20182;-83
2022/07/07 14:14:59;;;;;;;2.97;1.80;;;25.20;88.10;;;;;;12982077;22;20524;-83
2022/07/07 14:20:03;;;;;;;1.73;1.42;;;25.10;87.10;;;;;;12959316;22;20166;-83
2022/07/07 14:25:06;;;;;;;3.22;1.85;;;24.70;89.70;;;;;;12985692;22;20178;-86
2022/07/07 14:30:11;;;;;;;2.58;1.80;;;25.10;88.00;;;;;;12957111;22;20177;-82
2022/07/07 14:35:13;;;;;;;3.67;1.55;;;25.20;86.40;;;;;;12933500;22;20198;-83
2022/07/07 14:40:16;;;;;;;2.53;1.90;;;25.20;88.30;;;;;;13004587;22;20158;-83
2022/07/07 14:45:18;;;;;;;2.17;1.55;;;24.70;88.70;;;;;;13019004;22;20228;-83
2022/07/07 14:50:21;;;;;;;3.17;1.83;;;24.80;89.00;;;;;;13019698;22;20209;-84
2022/07/07 14:55:26;;;;;;;2.03;1.88;;;25.10;88.30;;;;;;13019263;22;20229;-84
2022/07/07 15:00:31;;;;;;;2.75;1.85;;;25.20;88.20;;;;;;13052779;22;20252;-84
2022/07/07 15:05:34;;;;;;;2.78;1.63;;;25.40;88.10;;;;;;13019833;22;20241;-84
2022/07/07 15:10:36;;;;;;;3.63;1.80;;;25.40;88.50;;;;;;13020081;22;21247;-83
2022/07/07 15:15:39;;;;;;;2.17;1.98;;;25.40;88.40;;;;;;13064319;22;20213;-83
2022/07/07 15:20:42;;;;;;;1.98;1.88;;;25.60;88.20;;;;;;13046362;22;20206;-84
2022/07/07 15:25:45;;;;;;;1.80;1.70;;;25.70;88.20;;;;;;13045876;22;20209;-83
2022/07/07 15:30:47;;;;;;;1.98;1.60;;;25.80;87.90;;;;;;13061603;22;20209;-84
2022/07/07 15:35:50;;;;;;;1.70;1.60;;;25.70;88.10;;;;;;13042296;22;20229;-84
2022/07/07 15:40:52;;;;;;;4.65;1.90;;;25.60;88.50;;;;;;13016315;22;20224;-84
2022/07/07 15:45:55;;;;;;;2.80;1.88;;;25.60;88.90;;;;;;13034604;22;20209;-83
2022/07/07 15:50:58;;;;;;;2.20;2.00;;;25.50;89.60;;;;;;13040984;22;20167;-82
2022/07/07 15:56:05;;;;;;;2.17;1.85;;;25.30;90.00;;;;;;13019326;22;20272;-84
2022/07/07 16:01:08;;;;;;;1.30;1.20;;;25.20;90.30;;;;;;12980108;22;20254;-83
2022/07/07 16:06:11;;;;;;;3.17;1.40;;;25.30;90.60;;;;;;12979763;22;20162;-83
2022/07/07 16:11:13;;;;;;;2.00;1.45;;;25.20;90.60;;;;;;12980123;23;20174;-84
2022/07/07 16:16:16;;;;;;;1.60;1.50;;;25.10;90.80;;;;;;12981933;22;20246;-84
2022/07/07 16:21:19;;;;;;;1.58;1.48;;;25.10;90.90;;;;;;12977678;22;20193;-83
2022/07/07 16:26:22;;;;;;;1.83;1.73;;;25.10;90.90;;;;;;13000632;22;20209;-83
2022/07/07 16:31:25;;;;;;;1.73;1.63;;;25.10;91.00;;;;;;12978681;22;20170;-83
2022/07/07 16:36:27;;;;;;;2.33;2.08;;;25.10;91.10;;;;;;12976841;23;20234;-82
2022/07/07 16:41:30;;;;;;;2.72;1.75;;;24.50;91.80;;;;;;12980446;22;20214;-83
2022/07/07 16:46:33;;;;;;;3.47;2.08;;;24.50;91.70;;;;;;12978355;23;20230;-83
2022/07/07 16:51:36;;;;;;;2.58;2.38;;;24.40;92.00;;;;;;12979206;22;20238;-83
2022/07/07 16:56:39;;;;;;;2.78;1.92;;;24.60;92.00;;;;;;12977195;23;20150;-83
2022/07/07 17:01:42;;;;;;;2.88;2.20;;;24.60;92.00;;;;;;13038123;22;20225;-83
2022/07/07 17:06:44;;;;;;;2.33;1.90;;;24.80;91.90;;;;;;12972443;22;20229;-83
2022/07/07 17:11:47;;;;;;;2.08;1.90;;;24.80;91.80;;;;;;12990353;22;20239;-83
2022/07/07 17:16:49;;;;;;;2.17;1.95;;;24.70;92.00;;;;;;12962739;22;20162;-83
2022/07/07 17:21:51;;;;;;;2.28;2.08;;;24.70;92.00;;;;;;12988698;22;20219;-83
2022/07/07 17:26:54;;;;;;;2.03;1.88;;;24.70;92.00;;;;;;12991496;22;20227;-83
2022/07/07 17:31:58;;;;;;;2.05;1.95;;;24.70;92.30;;;;;;12990232;22;20173;-83
2022/07/07 17:37:00;;;;;;;2.28;2.00;;;24.60;92.50;;;;;;12960408;22;20181;-83
2022/07/07 17:42:03;;;;;;;1.80;1.65;;;24.70;92.40;;;;;;12961560;22;20690;-83
2022/07/07 17:47:06;;;;;;;1.98;1.88;;;24.50;92.60;;;;;;12987580;22;20173;-83
2022/07/07 17:52:08;;;;;;;1.95;1.85;;;24.40;92.90;;;;;;12987507;22;20239;-83
2022/07/07 17:57:11;;;;;;;4.00;2.88;;;24.50;92.90;;;;;;12962747;22;20177;-83
2022/07/07 18:02:14;;;;;;;3.00;2.80;;;23.60;94.00;;;;;;12963965;22;20496;-83
2022/07/07 18:07:16;;;;;;;2.50;2.20;;;23.60;94.50;;;;;;12963608;22;20170;-83
2022/07/07 18:12:19;;;;;;;2.40;2.20;;;23.90;94.10;;;;;;12981044;22;20185;-84
2022/07/07 18:17:21;;;;;;;2.35;2.03;;;24.10;93.80;;;;;;12962892;22;20170;-84
2022/07/07 18:22:24;;;;;;;1.98;1.88;;;24.20;93.70;;;;;;12986453;22;20248;-83
2022/07/07 18:27:26;;;;;;;2.92;2.53;;;24.20;93.60;;;;;;12984237;22;20166;-84
2022/07/07 18:32:29;;;;;;;2.30;2.10;;;24.10;93.90;;;;;;12985176;22;20221;-84
2022/07/07 18:37:32;;;;;;;2.58;2.38;;;24.20;93.80;;;;;;12957493;22;20165;-83
2022/07/07 18:42:35;;;;;;;2.92;2.17;;;24.20;93.80;;;;;;12984538;22;20196;-84
2022/07/07 18:47:37;;;;;;;2.47;2.28;;;24.20;93.90;;;;;;12957566;22;20239;-84
2022/07/07 18:52:40;;;;;;;2.55;2.35;;;24.10;94.00;;;;;;12956195;22;20198;-84
2022/07/07 18:57:43;;;;;;;3.45;2.28;;;24.20;94.00;;;;;;12983839;22;20185;-84
2022/07/07 19:02:45;;;;;;;3.85;2.00;;;24.00;94.30;;;;;;13002002;22;20169;-84
2022/07/07 19:07:48;;;;;;;2.45;2.25;;;24.10;94.60;;;;;;12998461;22;20226;-83
2022/07/07 19:12:50;;;;;;;2.15;2.03;;;24.10;94.40;;;;;;12956899;22;20190;-84
2022/07/07 19:17:53;;;;;;;2.60;2.20;;;24.20;94.30;;;;;;12983147;22;20224;-84
2022/07/07 19:22:56;;;;;;;2.00;1.85;;;24.00;94.50;;;;;;12983213;22;20223;-84
2022/07/07 19:27:58;;;;;;;2.63;2.42;;;24.10;94.50;;;;;;12956930;22;20239;-83
2022/07/07 19:33:01;;;;;;;2.13;1.92;;;24.00;94.70;;;;;;12983182;22;20252;-84
2022/07/07 19:38:04;;;;;;;2.35;2.15;;;24.10;94.70;;;;;;12956730;22;20239;-84
2022/07/07 19:43:06;;;;;;;2.22;2.13;;;24.10;94.70;;;;;;12983176;22;20166;-84
2022/07/07 19:48:09;;;;;;;2.70;1.90;;;24.10;94.70;;;;;;12983034;22;20203;-84
2022/07/07 19:53:14;;;;;;;2.85;2.65;;;24.00;94.90;;;;;;12954220;22;20515;-83
2022/07/07 19:58:17;;;;;;;3.58;2.33;;;24.00;94.90;;;;;;12955704;22;20216;-83
2022/07/07 20:03:19;;;;;;;2.13;2.00;;;24.00;95.00;;;;;;12981157;22;20173;-83
2022/07/07 20:08:22;;;;;;;2.03;1.92;;;24.00;95.10;;;;;;12968482;22;20174;-83
2022/07/07 20:13:25;;;;;;;1.77;1.67;;;24.00;95.20;;;;;;12982206;22;20216;-83
2022/07/07 20:18:30;;;;;;;1.77;1.67;;;24.00;95.30;;;;;;12955363;22;20216;-83
2022/07/07 20:23:34;;;;;;;2.08;1.90;;;23.90;95.40;;;;;;12995013;22;20173;-83
2022/07/07 20:28:36;;;;;;;2.15;1.95;;;23.90;95.50;;;;;;12982359;22;20166;-83
2022/07/07 20:33:39;;;;;;;2.47;2.28;;;23.90;95.50;;;;;;12928569;22;20220;-83
2022/07/07 20:38:42;;;;;;;1.92;1.83;;;23.90;95.60;;;;;;12982398;22;20219;-83
2022/07/07 20:43:47;;;;;;;2.25;2.10;;;23.90;95.70;;;;;;12955528;22;20239;-83
2022/07/07 20:48:50;;;;;;;2.22;2.03;;;23.80;95.80;;;;;;12998877;22;20170;-83
2022/07/07 20:53:52;;;;;;;3.85;2.05;;;23.80;95.90;;;;;;12952316;22;20212;-82
2022/07/07 20:58:55;;;;;;;2.13;1.98;;;23.80;96.00;;;;;;12952307;22;20585;-83
2022/07/07 21:03:57;;;;;;;2.10;2.00;;;23.80;96.10;;;;;;12952806;22;20508;-83
2022/07/07 21:09:00;;;;;;;2.08;1.95;;;23.80;96.20;;;;;;12927902;22;20181;-83
2022/07/07 21:14:02;;;;;;;2.13;2.03;;;23.80;96.20;;;;;;12952707;22;20197;-83
2022/07/07 21:19:05;;;;;;;2.65;2.45;;;23.80;96.30;;;;;;12952494;22;20174;-83
2022/07/07 21:24:07;;;;;;;2.67;2.47;;;23.80;96.30;;;;;;12927741;22;20523;-83
2022/07/07 21:29:10;;;;;;;2.45;2.22;;;23.80;96.50;;;;;;12979423;22;20621;-83
2022/07/07 21:34:12;;;;;;;2.53;2.33;;;23.70;96.60;;;;;;12927078;22;20676;-83
2022/07/07 21:39:15;;;;;;;2.50;2.30;;;23.70;96.70;;;;;;12979420;22;20170;-83
2022/07/07 21:44:17;;;;;;;2.42;2.22;;;23.70;96.90;;;;;;12979636;22;20782;-83
2022/07/07 21:49:20;;;;;;;2.40;2.20;;;23.70;96.90;;;;;;12953355;22;20195;-84
2022/07/07 21:54:23;;;;;;;2.53;2.30;;;23.70;97.10;;;;;;12979645;22;20262;-83
2022/07/07 21:59:26;;;;;;;2.70;2.50;;;23.70;97.10;;;;;;12979841;22;20254;-83
2022/07/07 22:09:49;;;;;;;2.50;2.30;;;23.60;97.40;;;;;;12980979;22;20174;-84
2022/07/07 22:14:52;;;;;;;2.50;2.30;;;23.60;97.40;;;;;;12952946;22;20521;-83
2022/07/07 22:19:54;;;;;;;2.55;2.35;;;23.60;97.50;;;;;;12979700;22;20227;-83
2022/07/07 22:24:57;;;;;;;2.60;2.40;;;23.60;97.60;;;;;;12953536;22;20828;-83
2022/07/07 22:30:00;;;;;;;2.10;2.00;;;23.60;97.70;;;;;;12953028;22;20177;-83
2022/07/07 22:35:03;;;;;;;2.38;2.17;;;23.60;97.80;;;;;;12950704;22;20283;-83
2022/07/07 22:40:06;;;;;;;2.78;2.58;;;23.60;97.80;;;;;;12982147;22;20499;-82
2022/07/07 22:45:08;;;;;;;2.20;2.00;;;23.60;97.80;;;;;;12955870;22;20204;-83
2022/07/07 22:50:11;;;;;;;2.20;2.10;;;23.60;97.90;;;;;;12983412;22;20881;-83
2022/07/07 22:55:13;;;;;;;2.60;2.40;;;23.60;98.00;;;;;;12983473;22;20182;-83
2022/07/07 23:00:16;;;;;;;2.30;2.10;;;23.60;98.00;;;;;;12955804;22;20197;-83
2022/07/07 23:05:19;;;;;;;2.20;2.00;;;23.60;98.10;;;;;;12981598;22;20178;-83
2022/07/07 23:10:22;;;;;;;2.90;2.70;;;23.60;98.20;;;;;;12983824;22;20174;-83
2022/07/07 23:15:27;;;;;;;2.60;2.40;;;23.50;98.40;;;;;;12983712;22;20235;-83
2022/07/07 23:20:30;;;;;;;2.97;2.60;;;23.50;98.30;;;;;;12983766;22;20540;-83
2022/07/07 23:25:35;;;;;;;2.72;2.53;;;23.50;98.30;;;;;;12956300;22;20533;-83
2022/07/07 23:30:37;;;;;;;2.67;2.47;;;23.50;98.30;;;;;;12955502;22;20165;-83
2022/07/07 23:35:40;;;;;;;2.40;2.20;;;23.50;98.40;;;;;;12982773;22;20571;-83
2022/07/07 23:40:43;;;;;;;2.95;2.75;;;23.50;98.40;;;;;;12927131;22;20251;-83
2022/07/07 23:45:45;;;;;;;2.45;2.25;;;23.50;98.40;;;;;;12929540;22;20645;-84
2022/07/07 23:50:48;;;;;;;2.65;2.42;;;23.50;98.50;;;;;;12955097;22;20173;-84
2022/07/07 23:55:52;;;;;;;2.83;2.55;;;23.50;98.60;;;;;;12982361;22;20522;-83
